Pittsfield Township, Michigan
Current Conditions -  °F | °C
As of 8:53 AM on Thursday 29 Jan 2015 (Local Time) from KARB Reporting Station
Overcast Overcast  
Wind Chill: 24°   Ceiling: 4000
Heat Index: 29°   Visibility: 10mi
Dew Point: 24°   Wind: 5mph
Humidity: 82%   Direction: 120°ESE
Pressure: 29.77"   Gusts: NA
Location:  42.2641°N, 83.7197°W
Report Text: KARB 291353Z 12004KT 10SM OVC040 M02/M04 A2977 RMK AO2 SLP093 T10171044
Loading
Personal Weather Stations






























Interactive Weather Map New forecast layout! Learn more

10-Day Weather Forecast

Advertisements
Track Severe Weather on mobile